sensor_id;sensor_type;location;lat;lon;timestamp;pressure;altitude;pressure_sealevel;temperature;humidity
21779;BME280;11050;52.222;20.916;2023-03-03T00:01:23;100547.13;;;0.23;100.00
21779;BME280;11050;52.222;20.916;2023-03-03T00:03:53;100539.38;;;0.20;100.00
21779;BME280;11050;52.222;20.916;2023-03-03T00:06:20;100545.25;;;0.23;100.00
21779;BME280;11050;52.222;20.916;2023-03-03T00:08:46;100548.31;;;0.20;100.00
21779;BME280;11050;52.222;20.916;2023-03-03T00:11:12;100537.38;;;0.14;100.00
21779;BME280;11050;52.222;20.916;2023-03-03T00:13:46;100529.94;;;0.16;100.00
21779;BME280;11050;52.222;20.916;2023-03-03T00:16:16;100535.72;;;0.13;100.00
21779;BME280;11050;52.222;20.916;2023-03-03T00:18:46;100533.56;;;0.08;100.00
21779;BME280;11050;52.222;20.916;2023-03-03T00:24:29;100529.38;;;0.06;100.00
21779;BME280;11050;52.222;20.916;2023-03-03T00:27:15;100540.50;;;0.03;100.00
21779;BME280;11050;52.222;20.916;2023-03-03T00:29:47;100524.31;;;0.03;100.00
21779;BME280;11050;52.222;20.916;2023-03-03T00:32:30;100523.47;;;0.02;100.00
21779;BME280;11050;52.222;20.916;2023-03-03T00:35:30;100516.19;;;0.03;100.00
21779;BME280;11050;52.222;20.916;2023-03-03T00:38:10;100514.16;;;0.05;100.00
21779;BME280;11050;52.222;20.916;2023-03-03T00:40:39;100504.56;;;0.02;100.00
21779;BME280;11050;52.222;20.916;2023-03-03T00:43:21;100505.41;;;0.03;100.00
21779;BME280;11050;52.222;20.916;2023-03-03T00:45:50;100493.94;;;0.00;100.00
21779;BME280;11050;52.222;20.916;2023-03-03T00:48:29;100497.84;;;-0.02;100.00
21779;BME280;11050;52.222;20.916;2023-03-03T00:51:01;100495.16;;;-0.02;100.00
21779;BME280;11050;52.222;20.916;2023-03-03T00:53:30;100494.59;;;0.03;100.00
21779;BME280;11050;52.222;20.916;2023-03-03T00:55:57;100486.31;;;0.04;100.00
21779;BME280;11050;52.222;20.916;2023-03-03T00:58:23;100491.69;;;0.04;100.00
21779;BME280;11050;52.222;20.916;2023-03-03T01:00:52;100483.13;;;0.00;100.00
21779;BME280;11050;52.222;20.916;2023-03-03T01:03:22;100483.13;;;0.00;100.00
21779;BME280;11050;52.222;20.916;2023-03-03T01:05:50;100475.22;;;-0.01;100.00
21779;BME280;11050;52.222;20.916;2023-03-03T01:08:16;100483.13;;;0.00;100.00
21779;BME280;11050;52.222;20.916;2023-03-03T01:10:49;100470.94;;;0.05;100.00
21779;BME280;11050;52.222;20.916;2023-03-03T01:13:16;100474.03;;;0.02;100.00
21779;BME280;11050;52.222;20.916;2023-03-03T01:15:42;100468.31;;;-0.04;100.00
21779;BME280;11050;52.222;20.916;2023-03-03T01:18:12;100456.38;;;-0.09;100.00
21779;BME280;11050;52.222;20.916;2023-03-03T01:20:39;100447.59;;;-0.11;100.00
21779;BME280;11050;52.222;20.916;2023-03-03T01:23:05;100456.19;;;-0.08;100.00
21779;BME280;11050;52.222;20.916;2023-03-03T01:25:32;100453.31;;;-0.06;100.00
21779;BME280;11050;52.222;20.916;2023-03-03T01:27:58;100437.28;;;-0.08;100.00
21779;BME280;11050;52.222;20.916;2023-03-03T01:30:25;100440.47;;;-0.04;100.00
21779;BME280;11050;52.222;20.916;2023-03-03T01:32:51;100433.56;;;-0.07;100.00
21779;BME280;11050;52.222;20.916;2023-03-03T01:35:17;100426.47;;;-0.08;100.00
21779;BME280;11050;52.222;20.916;2023-03-03T01:37:42;100431.06;;;-0.08;100.00
21779;BME280;11050;52.222;20.916;2023-03-03T01:40:16;100424.41;;;-0.20;100.00
21779;BME280;11050;52.222;20.916;2023-03-03T01:42:42;100431.78;;;-0.14;100.00
21779;BME280;11050;52.222;20.916;2023-03-03T01:45:31;100430.28;;;-0.17;100.00
21779;BME280;11050;52.222;20.916;2023-03-03T01:50:56;100424.69;;;-0.15;100.00
21779;BME280;11050;52.222;20.916;2023-03-03T01:53:41;100413.78;;;-0.22;100.00
21779;BME280;11050;52.222;20.916;2023-03-03T01:56:08;100415.09;;;-0.18;100.00
21779;BME280;11050;52.222;20.916;2023-03-03T01:58:49;100422.53;;;-0.20;100.00
21779;BME280;11050;52.222;20.916;2023-03-03T02:01:21;100423.56;;;-0.21;100.00
21779;BME280;11050;52.222;20.916;2023-03-03T02:03:47;100427.94;;;-0.20;100.00
21779;BME280;11050;52.222;20.916;2023-03-03T02:06:21;100423.56;;;-0.21;100.00
21779;BME280;11050;52.222;20.916;2023-03-03T02:09:05;100426.25;;;-0.21;100.00
21779;BME280;11050;52.222;20.916;2023-03-03T02:11:39;100417.50;;;-0.23;100.00
21779;BME280;11050;52.222;20.916;2023-03-03T02:14:08;100417.03;;;-0.26;100.00
21779;BME280;11050;52.222;20.916;2023-03-03T02:16:34;100418.53;;;-0.24;100.00
21779;BME280;11050;52.222;20.916;2023-03-03T02:19:00;100422.88;;;-0.23;100.00
21779;BME280;11050;52.222;20.916;2023-03-03T02:21:26;100423.56;;;-0.21;100.00
21779;BME280;11050;52.222;20.916;2023-03-03T02:24:06;100435.00;;;-0.19;100.00
21779;BME280;11050;52.222;20.916;2023-03-03T02:26:38;100422.53;;;-0.20;100.00
21779;BME280;11050;52.222;20.916;2023-03-03T02:29:05;100420.50;;;-0.18;100.00
21779;BME280;11050;52.222;20.916;2023-03-03T02:31:31;100421.16;;;-0.16;100.00
21779;BME280;11050;52.222;20.916;2023-03-03T02:33:57;100425.53;;;-0.15;100.00
21779;BME280;11050;52.222;20.916;2023-03-03T02:36:26;100421.16;;;-0.16;100.00
21779;BME280;11050;52.222;20.916;2023-03-03T02:39:18;100422.53;;;-0.20;100.00
21779;BME280;11050;52.222;20.916;2023-03-03T02:41:49;100427.47;;;-0.23;100.00
21779;BME280;11050;52.222;20.916;2023-03-03T02:44:25;100418.34;;;-0.22;100.00
21779;BME280;11050;52.222;20.916;2023-03-03T02:46:54;100412.84;;;-0.29;100.00
21779;BME280;11050;52.222;20.916;2023-03-03T02:49:26;100422.78;;;-0.29;100.00
21779;BME280;11050;52.222;20.916;2023-03-03T02:51:53;100416.19;;;-0.27;100.00
21779;BME280;11050;52.222;20.916;2023-03-03T02:54:22;100415.06;;;-0.32;100.00
21779;BME280;11050;52.222;20.916;2023-03-03T02:56:48;100408.44;;;-0.30;100.00
21779;BME280;11050;52.222;20.916;2023-03-03T02:59:15;100413.84;;;-0.30;100.00
21779;BME280;11050;52.222;20.916;2023-03-03T03:01:41;100413.38;;;-0.33;100.00
21779;BME280;11050;52.222;20.916;2023-03-03T03:04:11;100406.47;;;-0.36;100.00
21779;BME280;11050;52.222;20.916;2023-03-03T03:06:38;100409.16;;;-0.36;100.00
21779;BME280;11050;52.222;20.916;2023-03-03T03:09:07;100416.44;;;-0.36;100.00
21779;BME280;11050;52.222;20.916;2023-03-03T03:11:33;100403.75;;;-0.36;100.00
21779;BME280;11050;52.222;20.916;2023-03-03T03:14:05;100401.06;;;-0.36;100.00
21779;BME280;11050;52.222;20.916;2023-03-03T03:16:31;100409.06;;;-0.42;100.00
21779;BME280;11050;52.222;20.916;2023-03-03T03:19:02;100408.41;;;-0.44;100.00
21779;BME280;11050;52.222;20.916;2023-03-03T03:21:29;100411.28;;;-0.46;100.00
21779;BME280;11050;52.222;20.916;2023-03-03T03:23:55;100410.81;;;-0.49;100.00
21779;BME280;11050;52.222;20.916;2023-03-03T03:26:21;100405.94;;;-0.54;100.00
21779;BME280;11050;52.222;20.916;2023-03-03T03:28:50;100400.94;;;-0.57;100.00
21779;BME280;11050;52.222;20.916;2023-03-03T03:31:18;100399.03;;;-0.56;100.00
21779;BME280;11050;52.222;20.916;2023-03-03T03:33:44;100403.25;;;-0.54;100.00
21779;BME280;11050;52.222;20.916;2023-03-03T03:36:10;100402.22;;;-0.53;100.00
21779;BME280;11050;52.222;20.916;2023-03-03T03:38:37;100394.03;;;-0.59;100.00
21779;BME280;11050;52.222;20.916;2023-03-03T03:41:04;100393.16;;;-0.60;100.00
21779;BME280;11050;52.222;20.916;2023-03-03T03:43:30;100394.88;;;-0.59;100.00
21779;BME280;11050;52.222;20.916;2023-03-03T03:45:56;100395.69;;;-0.58;100.00
21779;BME280;11050;52.222;20.916;2023-03-03T03:48:21;100406.97;;;-0.55;100.00
21779;BME280;11050;52.222;20.916;2023-03-03T03:50:48;100396.00;;;-0.53;100.00
21779;BME280;11050;52.222;20.916;2023-03-03T03:53:15;100395.34;;;-0.55;100.00
21779;BME280;11050;52.222;20.916;2023-03-03T03:55:42;100392.63;;;-0.55;100.00
21779;BME280;11050;52.222;20.916;2023-03-03T03:58:12;100383.50;;;-0.54;100.00
21779;BME280;11050;52.222;20.916;2023-03-03T04:00:40;100385.50;;;-0.48;100.00
21779;BME280;11050;52.222;20.916;2023-03-03T04:03:07;100373.38;;;-0.52;100.00
21779;BME280;11050;52.222;20.916;2023-03-03T04:05:33;100379.63;;;-0.52;100.00
21779;BME280;11050;52.222;20.916;2023-03-03T04:07:59;100388.00;;;-0.47;100.00
21779;BME280;11050;52.222;20.916;2023-03-03T04:10:25;100373.03;;;-0.49;100.00
21779;BME280;11050;52.222;20.916;2023-03-03T04:12:50;100382.97;;;-0.50;100.00
21779;BME280;11050;52.222;20.916;2023-03-03T04:15:16;100383.16;;;-0.51;100.00
21779;BME280;11050;52.222;20.916;2023-03-03T04:17:42;100381.28;;;-0.51;100.00
21779;BME280;11050;52.222;20.916;2023-03-03T04:20:10;100372.19;;;-0.50;100.00
21779;BME280;11050;52.222;20.916;2023-03-03T04:22:37;100378.97;;;-0.54;100.00
21779;BME280;11050;52.222;20.916;2023-03-03T04:25:04;100371.72;;;-0.53;100.00
21779;BME280;11050;52.222;20.916;2023-03-03T04:27:34;100369.34;;;-0.56;100.00
21779;BME280;11050;52.222;20.916;2023-03-03T04:30:02;100365.19;;;-0.59;100.00
21779;BME280;11050;52.222;20.916;2023-03-03T04:32:29;100370.38;;;-0.57;100.00
21779;BME280;11050;52.222;20.916;2023-03-03T04:34:57;100354.53;;;-0.60;100.00
21779;BME280;11050;52.222;20.916;2023-03-03T04:37:22;100360.69;;;-0.66;100.00
21779;BME280;11050;52.222;20.916;2023-03-03T04:39:48;100356.28;;;-0.67;100.00
21779;BME280;11050;52.222;20.916;2023-03-03T04:42:13;100361.41;;;-0.72;100.00
21779;BME280;11050;52.222;20.916;2023-03-03T04:44:40;100353.66;;;-0.75;100.00
21779;BME280;11050;52.222;20.916;2023-03-03T04:47:05;100356.66;;;-0.70;100.00
21779;BME280;11050;52.222;20.916;2023-03-03T04:49:31;100356.19;;;-0.74;100.00
21779;BME280;11050;52.222;20.916;2023-03-03T04:51:57;100345.47;;;-0.82;100.00
21779;BME280;11050;52.222;20.916;2023-03-03T04:54:23;100350.66;;;-0.80;100.00
21779;BME280;11050;52.222;20.916;2023-03-03T04:56:49;100342.09;;;-0.84;100.00
21779;BME280;11050;52.222;20.916;2023-03-03T04:59:15;100345.31;;;-0.88;100.00
21779;BME280;11050;52.222;20.916;2023-03-03T05:01:40;100333.06;;;-0.91;100.00
21779;BME280;11050;52.222;20.916;2023-03-03T05:04:07;100333.25;;;-0.92;100.00
21779;BME280;11050;52.222;20.916;2023-03-03T05:06:32;100340.78;;;-0.88;100.00
21779;BME280;11050;52.222;20.916;2023-03-03T05:08:58;100339.94;;;-0.88;100.00
21779;BME280;11050;52.222;20.916;2023-03-03T05:11:24;100340.78;;;-0.88;100.00
21779;BME280;11050;52.222;20.916;2023-03-03T05:13:49;100340.97;;;-0.89;100.00
21779;BME280;11050;52.222;20.916;2023-03-03T05:16:15;100343.28;;;-0.86;100.00
21779;BME280;11050;52.222;20.916;2023-03-03T05:18:41;100346.66;;;-0.84;100.00
21779;BME280;11050;52.222;20.916;2023-03-03T05:21:07;100346.66;;;-0.84;100.00
21779;BME280;11050;52.222;20.916;2023-03-03T05:23:32;100338.56;;;-0.84;100.00
21779;BME280;11050;52.222;20.916;2023-03-03T05:25:58;100330.94;;;-0.81;100.00
21779;BME280;11050;52.222;20.916;2023-03-03T05:28:24;100333.53;;;-0.65;100.00
21779;BME280;11050;52.222;20.916;2023-03-03T05:30:49;100343.59;;;-0.59;100.00
21779;BME280;11050;52.222;20.916;2023-03-03T05:33:16;100340.81;;;-0.51;100.00
21779;BME280;11050;52.222;20.916;2023-03-03T05:35:42;100343.16;;;-0.48;100.00
21779;BME280;11050;52.222;20.916;2023-03-03T05:38:09;100333.69;;;-0.44;100.00
21779;BME280;11050;52.222;20.916;2023-03-03T05:40:35;100342.25;;;-0.40;100.00
21779;BME280;11050;52.222;20.916;2023-03-03T05:43:01;100341.34;;;-0.33;100.00
21779;BME280;11050;52.222;20.916;2023-03-03T05:45:27;100332.19;;;-0.32;100.00
21779;BME280;11050;52.222;20.916;2023-03-03T05:47:53;100339.19;;;-0.23;100.00
21779;BME280;11050;52.222;20.916;2023-03-03T05:50:20;100342.53;;;-0.21;100.00
21779;BME280;11050;52.222;20.916;2023-03-03T05:52:52;100332.88;;;-0.15;100.00
21779;BME280;11050;52.222;20.916;2023-03-03T05:55:18;100338.09;;;-0.14;100.00
21779;BME280;11050;52.222;20.916;2023-03-03T05:57:44;100341.25;;;-0.25;100.00
21779;BME280;11050;52.222;20.916;2023-03-03T06:00:11;100331.88;;;-0.14;100.00
21779;BME280;11050;52.222;20.916;2023-03-03T06:02:38;100336.34;;;-0.07;100.00
21779;BME280;11050;52.222;20.916;2023-03-03T06:05:04;100328.69;;;-0.03;100.00
21779;BME280;11050;52.222;20.916;2023-03-03T06:07:30;100327.13;;;0.03;100.00
21779;BME280;11050;52.222;20.916;2023-03-03T06:09:56;100321.72;;;0.03;100.00
21779;BME280;11050;52.222;20.916;2023-03-03T06:12:22;100326.38;;;-0.06;100.00
21779;BME280;11050;52.222;20.916;2023-03-03T06:14:47;100329.63;;;0.04;100.00
21779;BME280;11050;52.222;20.916;2023-03-03T06:17:13;100333.84;;;0.07;100.00
21779;BME280;11050;52.222;20.916;2023-03-03T06:19:39;100342.59;;;0.09;100.00
21779;BME280;11050;52.222;20.916;2023-03-03T06:22:07;100349.56;;;0.18;100.00
21779;BME280;11050;52.222;20.916;2023-03-03T06:24:33;100351.34;;;0.11;100.00
21779;BME280;11050;52.222;20.916;2023-03-03T06:27:00;100365.59;;;0.19;100.00
21779;BME280;11050;52.222;20.916;2023-03-03T06:29:27;100349.38;;;0.19;100.00
21779;BME280;11050;52.222;20.916;2023-03-03T06:31:52;100338.13;;;0.16;100.00
21779;BME280;11050;52.222;20.916;2023-03-03T06:34:18;100347.34;;;0.21;100.00
21779;BME280;11050;52.222;20.916;2023-03-03T06:36:44;100344.34;;;0.31;100.00
21779;BME280;11050;52.222;20.916;2023-03-03T06:39:10;100348.09;;;0.30;100.00
21779;BME280;11050;52.222;20.916;2023-03-03T06:41:37;100346.53;;;0.21;100.00
21779;BME280;11050;52.222;20.916;2023-03-03T06:44:03;100345.75;;;0.27;100.00
21779;BME280;11050;52.222;20.916;2023-03-03T06:46:29;100347.44;;;0.28;100.00
21779;BME280;11050;52.222;20.916;2023-03-03T06:48:54;100351.00;;;0.28;100.00
21779;BME280;11050;52.222;20.916;2023-03-03T06:51:31;100343.03;;;0.27;100.00
21779;BME280;11050;52.222;20.916;2023-03-03T06:54:08;100345.66;;;0.35;100.00
21779;BME280;11050;52.222;20.916;2023-03-03T06:56:36;100338.00;;;0.38;100.00
21779;BME280;11050;52.222;20.916;2023-03-03T06:59:12;100349.28;;;0.42;100.00
21779;BME280;11050;52.222;20.916;2023-03-03T07:01:39;100338.47;;;0.42;100.00
21779;BME280;11050;52.222;20.916;2023-03-03T07:04:28;100351.69;;;0.51;100.00
21779;BME280;11050;52.222;20.916;2023-03-03T07:06:57;100347.03;;;0.60;100.00
21779;BME280;11050;52.222;20.916;2023-03-03T07:09:28;100340.88;;;0.66;100.00
21779;BME280;11050;52.222;20.916;2023-03-03T07:12:01;100343.66;;;0.72;100.00
21779;BME280;11050;52.222;20.916;2023-03-03T07:14:31;100338.50;;;0.77;100.00
21779;BME280;11050;52.222;20.916;2023-03-03T07:17:01;100339.28;;;0.71;100.00
21779;BME280;11050;52.222;20.916;2023-03-03T07:19:34;100337.03;;;0.75;100.00
21779;BME280;11050;52.222;20.916;2023-03-03T07:22:20;100338.16;;;0.80;100.00
21779;BME280;11050;52.222;20.916;2023-03-03T07:24:49;100331.34;;;0.70;100.00
21779;BME280;11050;52.222;20.916;2023-03-03T07:30:00;100323.22;;;0.70;100.00
21779;BME280;11050;52.222;20.916;2023-03-03T07:32:41;100324.97;;;0.77;100.00
21779;BME280;11050;52.222;20.916;2023-03-03T07:35:43;100331.69;;;0.81;100.00
21779;BME280;11050;52.222;20.916;2023-03-03T07:38:38;100335.50;;;0.87;100.00
21779;BME280;11050;52.222;20.916;2023-03-03T07:41:16;100339.91;;;0.88;100.00
21779;BME280;11050;52.222;20.916;2023-03-03T07:43:53;100349.56;;;0.97;100.00
21779;BME280;11050;52.222;20.916;2023-03-03T07:48:52;100346.03;;;1.18;100.00
21779;BME280;11050;52.222;20.916;2023-03-03T07:51:28;100354.38;;;1.16;100.00
21779;BME280;11050;52.222;20.916;2023-03-03T08:02:46;100355.91;;;1.25;100.00
21779;BME280;11050;52.222;20.916;2023-03-03T08:08:29;100358.09;;;1.36;100.00
21779;BME280;11050;52.222;20.916;2023-03-03T08:11:02;100359.19;;;1.42;100.00
21779;BME280;11050;52.222;20.916;2023-03-03T08:16:01;100363.72;;;1.35;100.00
21779;BME280;11050;52.222;20.916;2023-03-03T08:18:31;100354.41;;;1.44;100.00
21779;BME280;11050;52.222;20.916;2023-03-03T08:21:13;100358.94;;;1.58;100.00
21779;BME280;11050;52.222;20.916;2023-03-03T08:23:40;100371.63;;;1.57;100.00
21779;BME280;11050;52.222;20.916;2023-03-03T08:26:06;100380.81;;;1.56;100.00
21779;BME280;11050;52.222;20.916;2023-03-03T08:28:32;100389.19;;;1.61;100.00
21779;BME280;11050;52.222;20.916;2023-03-03T08:30:57;100379.09;;;1.55;100.00
21779;BME280;11050;52.222;20.916;2023-03-03T08:33:23;100383.94;;;1.39;100.00
21779;BME280;11050;52.222;20.916;2023-03-03T08:35:49;100386.34;;;1.48;100.00
21779;BME280;11050;52.222;20.916;2023-03-03T08:38:19;100382.22;;;1.52;100.00
21779;BME280;11050;52.222;20.916;2023-03-03T08:40:46;100390.34;;;1.52;100.00
21779;BME280;11050;52.222;20.916;2023-03-03T08:43:13;100392.91;;;1.60;100.00
21779;BME280;11050;52.222;20.916;2023-03-03T08:45:45;100390.47;;;1.65;100.00
21779;BME280;11050;52.222;20.916;2023-03-03T08:48:12;100394.72;;;1.74;100.00
21779;BME280;11050;52.222;20.916;2023-03-03T08:50:38;100395.41;;;1.83;100.00
21779;BME280;11050;52.222;20.916;2023-03-03T08:53:04;100386.91;;;1.86;100.00
21779;BME280;11050;52.222;20.916;2023-03-03T08:55:31;100409.78;;;1.83;100.00
21779;BME280;11050;52.222;20.916;2023-03-03T08:57:57;100389.75;;;1.78;100.00
21779;BME280;11050;52.222;20.916;2023-03-03T09:00:23;100404.44;;;1.90;100.00
21779;BME280;11050;52.222;20.916;2023-03-03T09:02:50;100379.84;;;1.91;100.00
21779;BME280;11050;52.222;20.916;2023-03-03T09:05:18;100388.66;;;2.00;100.00
21779;BME280;11050;52.222;20.916;2023-03-03T09:07:45;100397.69;;;2.07;100.00
21779;BME280;11050;52.222;20.916;2023-03-03T09:10:15;100403.94;;;2.08;100.00
21779;BME280;11050;52.222;20.916;2023-03-03T09:12:46;100405.03;;;2.13;100.00
21779;BME280;11050;52.222;20.916;2023-03-03T09:15:27;100393.16;;;2.14;100.00
21779;BME280;11050;52.222;20.916;2023-03-03T09:17:57;100396.84;;;2.34;100.00
21779;BME280;11050;52.222;20.916;2023-03-03T09:20:31;100390.97;;;2.31;100.00
21779;BME280;11050;52.222;20.916;2023-03-03T09:23:20;100388.50;;;2.36;100.00
21779;BME280;11050;52.222;20.916;2023-03-03T09:25:51;100372.06;;;2.37;100.00
21779;BME280;11050;52.222;20.916;2023-03-03T09:28:29;100376.41;;;2.32;100.00
21779;BME280;11050;52.222;20.916;2023-03-03T09:31:01;100354.88;;;2.30;100.00
21779;BME280;11050;52.222;20.916;2023-03-03T09:33:41;100359.72;;;2.35;100.00
21779;BME280;11050;52.222;20.916;2023-03-03T09:36:34;100362.31;;;2.49;100.00
21779;BME280;11050;52.222;20.916;2023-03-03T09:39:20;100368.09;;;2.40;100.00
21779;BME280;11050;52.222;20.916;2023-03-03T09:59:00;100354.16;;;2.43;100.00
21779;BME280;11050;52.222;20.916;2023-03-03T10:05:03;100342.06;;;2.11;100.00
21779;BME280;11050;52.222;20.916;2023-03-03T10:10:43;100345.69;;;2.25;100.00
21779;BME280;11050;52.222;20.916;2023-03-03T10:13:16;100338.19;;;2.27;100.00
21779;BME280;11050;52.222;20.916;2023-03-03T10:16:18;100360.06;;;2.19;100.00
21779;BME280;11050;52.222;20.916;2023-03-03T10:19:00;100348.75;;;2.15;100.00
21779;BME280;11050;52.222;20.916;2023-03-03T10:21:40;100345.94;;;2.02;100.00
21779;BME280;11050;52.222;20.916;2023-03-03T10:24:39;100346.16;;;2.01;100.00
21779;BME280;11050;52.222;20.916;2023-03-03T10:33:26;100339.53;;;2.10;100.00
21779;BME280;11050;52.222;20.916;2023-03-03T10:36:09;100345.81;;;2.10;100.00
21779;BME280;11050;52.222;20.916;2023-03-03T10:50:32;100372.22;;;2.36;100.00
21779;BME280;11050;52.222;20.916;2023-03-03T10:56:19;100367.63;;;2.30;100.00
21779;BME280;11050;52.222;20.916;2023-03-03T11:05:47;100352.59;;;2.27;100.00
21779;BME280;11050;52.222;20.916;2023-03-03T11:08:40;100348.22;;;2.26;100.00
21779;BME280;11050;52.222;20.916;2023-03-03T11:11:40;100361.72;;;2.20;100.00
21779;BME280;11050;52.222;20.916;2023-03-03T11:14:26;100367.78;;;2.22;100.00
21779;BME280;11050;52.222;20.916;2023-03-03T11:19:59;100375.28;;;2.20;100.00
21779;BME280;11050;52.222;20.916;2023-03-03T11:25:45;100372.63;;;2.26;100.00
21779;BME280;11050;52.222;20.916;2023-03-03T11:28:29;100370.91;;;2.25;100.00
21779;BME280;11050;52.222;20.916;2023-03-03T11:31:31;100354.16;;;2.15;100.00
21779;BME280;11050;52.222;20.916;2023-03-03T11:34:35;100350.88;;;2.20;100.00
21779;BME280;11050;52.222;20.916;2023-03-03T11:37:43;100335.03;;;2.23;100.00
21779;BME280;11050;52.222;20.916;2023-03-03T11:40:49;100342.94;;;2.18;100.00
21779;BME280;11050;52.222;20.916;2023-03-03T11:43:42;100341.25;;;2.17;100.00
21779;BME280;11050;52.222;20.916;2023-03-03T11:46:16;100345.38;;;2.07;100.00
21779;BME280;11050;52.222;20.916;2023-03-03T11:49:10;100334.09;;;2.03;100.00
21779;BME280;11050;52.222;20.916;2023-03-03T11:52:02;100332.69;;;2.14;100.00
21779;BME280;11050;52.222;20.916;2023-03-03T11:54:53;100335.25;;;2.22;100.00
21779;BME280;11050;52.222;20.916;2023-03-03T11:57:28;100327.75;;;2.24;100.00
21779;BME280;11050;52.222;20.916;2023-03-03T12:05:37;100339.16;;;2.13;100.00
21779;BME280;11050;52.222;20.916;2023-03-03T12:11:24;100355.41;;;2.13;100.00
21779;BME280;11050;52.222;20.916;2023-03-03T12:14:19;100338.16;;;1.92;100.00
21779;BME280;11050;52.222;20.916;2023-03-03T12:20:16;100342.59;;;2.00;100.00
21779;BME280;11050;52.222;20.916;2023-03-03T12:25:57;100350.72;;;2.00;100.00
21779;BME280;11050;52.222;20.916;2023-03-03T12:28:49;100343.78;;;1.91;100.00
21779;BME280;11050;52.222;20.916;2023-03-03T12:34:16;100343.56;;;1.86;100.00
21779;BME280;11050;52.222;20.916;2023-03-03T12:36:58;100340.22;;;1.90;100.00
21779;BME280;11050;52.222;20.916;2023-03-03T12:40:17;100337.34;;;1.92;100.00
21779;BME280;11050;52.222;20.916;2023-03-03T12:43:12;100338.16;;;1.92;100.00
21779;BME280;11050;52.222;20.916;2023-03-03T12:46:02;100332.75;;;1.92;100.00
21779;BME280;11050;52.222;20.916;2023-03-03T12:48:45;100337.34;;;1.92;100.00
21779;BME280;11050;52.222;20.916;2023-03-03T12:52:22;100331.28;;;1.90;100.00
21779;BME280;11050;52.222;20.916;2023-03-03T13:02:37;100333.78;;;1.91;100.00
21779;BME280;11050;52.222;20.916;2023-03-03T13:07:51;100340.88;;;1.92;100.00
21779;BME280;11050;52.222;20.916;2023-03-03T13:10:37;100339.22;;;1.91;100.00
21779;BME280;11050;52.222;20.916;2023-03-03T13:16:28;100336.91;;;1.88;100.00
21779;BME280;11050;52.222;20.916;2023-03-03T13:19:10;100331.09;;;1.91;100.00
21779;BME280;11050;52.222;20.916;2023-03-03T13:21:57;100337.53;;;1.90;100.00
21779;BME280;11050;52.222;20.916;2023-03-03T13:24:50;100348.09;;;1.79;100.00
21779;BME280;11050;52.222;20.916;2023-03-03T13:27:25;100331.63;;;1.80;100.00
21779;BME280;11050;52.222;20.916;2023-03-03T13:30:03;100327.22;;;1.79;100.00
21779;BME280;11050;52.222;20.916;2023-03-03T13:32:59;100322.66;;;1.80;100.00
21779;BME280;11050;52.222;20.916;2023-03-03T13:35:48;100327.72;;;1.89;100.00
21779;BME280;11050;52.222;20.916;2023-03-03T13:38:28;100325.88;;;1.90;100.00
21779;BME280;11050;52.222;20.916;2023-03-03T13:44:11;100318.88;;;1.74;100.00
21779;BME280;11050;52.222;20.916;2023-03-03T13:53:29;100313.22;;;1.69;100.00
21779;BME280;11050;52.222;20.916;2023-03-03T13:56:24;100326.09;;;1.67;100.00
21779;BME280;11050;52.222;20.916;2023-03-03T13:59:08;100307.09;;;1.61;100.00
21779;BME280;11050;52.222;20.916;2023-03-03T14:01:57;100307.69;;;1.56;100.00
21779;BME280;11050;52.222;20.916;2023-03-03T14:04:53;100296.25;;;1.61;100.00
21779;BME280;11050;52.222;20.916;2023-03-03T14:07:36;100295.03;;;1.63;100.00
21779;BME280;11050;52.222;20.916;2023-03-03T14:10:35;100292.97;;;1.65;100.00
21779;BME280;11050;52.222;20.916;2023-03-03T14:13:28;100291.78;;;1.74;100.00
21779;BME280;11050;52.222;20.916;2023-03-03T14:19:16;100306.19;;;1.81;100.00
21779;BME280;11050;52.222;20.916;2023-03-03T14:21:56;100305.97;;;1.76;100.00
21779;BME280;11050;52.222;20.916;2023-03-03T14:24:26;100305.09;;;1.69;100.00
21779;BME280;11050;52.222;20.916;2023-03-03T14:26:56;100309.59;;;1.62;100.00
21779;BME280;11050;52.222;20.916;2023-03-03T14:31:52;100301.56;;;1.48;100.00
21779;BME280;11050;52.222;20.916;2023-03-03T14:34:39;100305.63;;;1.58;100.00
21779;BME280;11050;52.222;20.916;2023-03-03T14:37:42;100296.59;;;1.51;100.00
21779;BME280;11050;52.222;20.916;2023-03-03T14:40:19;100306.25;;;1.60;100.00
21779;BME280;11050;52.222;20.916;2023-03-03T14:48:23;100292.31;;;1.63;100.00
21779;BME280;11050;52.222;20.916;2023-03-03T14:51:22;100298.19;;;1.67;100.00
21779;BME280;11050;52.222;20.916;2023-03-03T14:53:49;100303.03;;;1.71;100.00
21779;BME280;11050;52.222;20.916;2023-03-03T14:56:26;100285.94;;;1.71;100.00
21779;BME280;11050;52.222;20.916;2023-03-03T14:59:14;100284.63;;;1.67;100.00
21779;BME280;11050;52.222;20.916;2023-03-03T15:01:41;100296.34;;;1.74;100.00
21779;BME280;11050;52.222;20.916;2023-03-03T15:06:50;100296.56;;;1.72;100.00
21779;BME280;11050;52.222;20.916;2023-03-03T15:09:38;100289.47;;;1.71;100.00
21779;BME280;11050;52.222;20.916;2023-03-03T15:12:37;100307.63;;;1.77;100.00
21779;BME280;11050;52.222;20.916;2023-03-03T15:17:42;100296.66;;;1.58;100.00
21779;BME280;11050;52.222;20.916;2023-03-03T15:20:37;100298.28;;;1.52;100.00
21779;BME280;11050;52.222;20.916;2023-03-03T15:23:36;100296.47;;;1.38;100.00
21779;BME280;11050;52.222;20.916;2023-03-03T15:26:19;100304.81;;;1.37;100.00
21779;BME280;11050;52.222;20.916;2023-03-03T15:34:40;100293.13;;;1.36;100.00
21779;BME280;11050;52.222;20.916;2023-03-03T15:37:48;100296.44;;;1.32;100.00